Airfield :







YOU CAN JOIN US ON...

 
LOGIN :

Register | Disclaimer

   EN    FR    IT 

 









Legend :    VFR   Marginal VFR   IFR   Intensive IFR   Very Intensive IFR
Visi :
Ceiling :
>= 8 km
>= 3000ft
5 to 8 km
1000 to 3000 ft
1500m to 5 km
500 to 1000 ft
800 to 1500m
200 to 500 ft
< 800m
< 200 ft
Symbols :   Thunderstorms  Fog  Heavy snow  Heavy precipitations  Wind > 20 kt







- Airport Elevation : 21 ft
- IATA code : YVM


CYVM - Qikiqtarjuac

CURRENT METAR :
  • 210826Z AUTO 02006KT 9SM SCT004 SCT009 04/03 A2974 RMK SLP074

EXPIRED METARs :
  • 210800Z AUTO 03007KT 9SM BKN006 03/03 A2974 RMK SLP072
  • 210733Z AUTO 02008KT 9SM BKN006 03/03 A2973 RMK SLP071
  • 210729Z AUTO 03009KT 9SM SCT006 03/03 A2973 RMK SLP071
  • 210700Z AUTO 04007KT 9SM OVC006 03/03 A2973 RMK SLP071
  • 210600Z AUTO 05009KT 9SM OVC006 03/03 A2973 RMK SLP069

TAF TAF CYVM
Valid from the 21 at 07:00 until the 21 at 19:00 UTC


210638Z 2107/2119 04010KT P6SM SCT006 BKN100
TEMPO 2107/2119 2SM -RA BR BKN006 OVC100
BECMG 2107/2109 18010KT RMK FCST BASED ON AUTO OBS. NXT FCST BY 211300Z
CZEG FIR / North America



MET'MAP, your aeronautical weather chart ! - Copyright ORBIFLY December 2007 - Disclaimer

ORBIFLY MET'MAP TEAM :

Programming & Development : Alexandra Zaïnal
Concept & Development : Baudouin d'Aumeries
Co-Development & Prog : Marc-Olivier Méhu
Technical & hardware support : Manuel Goepfert

Contact : metmap@orbifly.com




SOURCES & CREDITS :

   NOAA